»·PEaware :: SWA342 KDEN-KSAN

SWA342 :: KDEN-KSAN

FLIGHT INFORMATION

Flight Status: Arrived
Operator:
Southwest Airlines
More flights by this operator :: More flights under this callsign
Pilot: Andrew M. (139)
Aircraft: BOEING 737-800
(B738)
More flights by this aircraft type
Origin: KDEN Denver Intl
United States
Destination: KSAN San Diego Intl-Lindbergh
United States
More flights between these airports :: More routes between these airports
Route: BAYLR4 TEHRU PLNDL Q86 TTRUE LUCKI1
File this flight plan on PilotEdge
Remarks: PBN / A1B1C1D1S1S2 DOF / 181214 REG / N608BT EET / KZLA0107 OPR / SWA PER / C RMK / TCAS SIMBRIEF
Altitude:
(Current/Filed)
34,000ft
Speed:
(Current/Filed)
442kts
Departed: 14-Dec-18 04:59 PM
Arrived: 14-Dec-18 06:52 PM
Distance/Time
Traveled:
740nm/1:52
Distance/Time
To Go:
Arrived

Flight Plot

Page will automatically refresh every two minutes.

Flight plan parsing failed; only flown route is shown


Map Options




Map Legend


Flown Route
Filed Route
Departure Airport
Arrival Airport
Navaid (VOR, NDB)
Fix

Horizontal Profiles

Position Reports

Time Latitude Longitude Heading Altitude Ground
Speed
14-Dec-18 16:10 39.854447 -104.676029 166 5442ft 0kts
14-Dec-18 16:11 39.854447 -104.676029 166 5442ft 0kts
14-Dec-18 16:12 39.854447 -104.676029 166 5442ft 0kts
14-Dec-18 16:13 39.854447 -104.676029 166 5442ft 0kts
14-Dec-18 16:14 39.854447 -104.676029 166 5442ft 0kts
14-Dec-18 16:15 39.854447 -104.676029 166 5442ft 0kts
14-Dec-18 16:16 39.854447 -104.676029 166 5442ft 0kts
14-Dec-18 16:20 39.854447 -104.676029 166 5442ft 0kts
14-Dec-18 16:21 39.854447 -104.676029 166 5442ft 0kts
14-Dec-18 16:22 39.854447 -104.676029 166 5442ft 0kts
14-Dec-18 16:23 39.854447 -104.676029 166 5442ft 0kts
14-Dec-18 16:24 39.854447 -104.676029 166 5442ft 0kts
14-Dec-18 16:25 39.854447 -104.676029 166 5442ft 0kts
14-Dec-18 16:26 39.854447 -104.676029 166 5442ft 0kts
14-Dec-18 16:27 39.854447 -104.676029 166 5442ft 0kts
14-Dec-18 16:28 39.854447 -104.676029 166 5442ft 0kts
14-Dec-18 16:29 39.854447 -104.676029 166 5442ft 0kts
14-Dec-18 16:30 39.854447 -104.676029 166 5442ft 0kts
14-Dec-18 16:31 39.854447 -104.676029 166 5442ft 0kts
14-Dec-18 16:32 39.854447 -104.676029 166 5442ft 0kts
14-Dec-18 16:33 39.854447 -104.676029 166 5442ft 0kts
14-Dec-18 16:34 39.854447 -104.676029 166 5442ft 0kts
14-Dec-18 16:35 39.854447 -104.676029 166 5442ft 0kts
14-Dec-18 16:36 39.854447 -104.676029 166 5442ft 0kts
14-Dec-18 16:37 39.854447 -104.676029 166 5442ft 0kts
14-Dec-18 16:38 39.854447 -104.676029 166 5442ft 0kts
14-Dec-18 16:39 39.854447 -104.676029 166 5442ft 0kts
14-Dec-18 16:40 39.854447 -104.676029 166 5442ft 0kts
14-Dec-18 16:41 39.854447 -104.676029 166 5442ft 0kts
14-Dec-18 16:42 39.854969 -104.676144 198 5442ft 2kts
14-Dec-18 16:43 39.855184 -104.675510 298 5442ft 2kts
14-Dec-18 16:44 39.855066 -104.675335 319 5442ft 0kts
14-Dec-18 16:45 39.855066 -104.675335 319 5442ft 0kts
14-Dec-18 16:46 39.855066 -104.675335 319 5442ft 0kts
14-Dec-18 16:47 39.855075 -104.675345 318 5442ft 0kts
14-Dec-18 16:48 39.856217 -104.675678 112 5442ft 6kts
14-Dec-18 16:49 39.855879 -104.671825 90 5442ft 13kts
14-Dec-18 16:50 39.855838 -104.666594 90 5442ft 14kts
14-Dec-18 16:51 39.856076 -104.662396 26 5442ft 9kts
14-Dec-18 16:52 39.859057 -104.662279 1 5442ft 12kts
14-Dec-18 16:53 39.861007 -104.661791 85 5442ft 0kts
14-Dec-18 16:54 39.861007 -104.661791 86 5442ft 0kts
14-Dec-18 16:55 39.861007 -104.661791 86 5442ft 0kts
14-Dec-18 16:56 39.861007 -104.661791 86 5442ft 0kts
14-Dec-18 16:57 39.860338 -104.660150 179 5442ft 13kts
14-Dec-18 16:59 39.828809 -104.661941 184 5943ft 165kts
14-Dec-18 17:00 39.781661 -104.676427 217 6889ft 199kts
14-Dec-18 17:01 39.752856 -104.750447 269 8371ft 276kts
14-Dec-18 17:02 39.757262 -104.853192 270 9998ft 288kts
14-Dec-18 17:03 39.764734 -104.961208 281 10751ft 321kts
14-Dec-18 17:04 39.749585 -105.075797 245 13573ft 336kts
14-Dec-18 17:05 39.708962 -105.188276 245 16502ft 351kts
14-Dec-18 17:06 39.666875 -105.305806 245 19206ft 365kts
14-Dec-18 17:07 39.623171 -105.427111 245 21612ft 379kts
14-Dec-18 17:08 39.577597 -105.552778 244 23762ft 392kts
14-Dec-18 17:09 39.535262 -105.681797 250 25047ft 401kts
14-Dec-18 17:10 39.498067 -105.817628 250 25377ft 405kts
14-Dec-18 17:11 39.459527 -105.955987 250 27243ft 414kts
14-Dec-18 17:12 39.419756 -106.097953 250 28877ft 425kts
14-Dec-18 17:13 39.378805 -106.243298 250 30371ft 435kts
14-Dec-18 17:14 39.337071 -106.390572 250 31976ft 438kts
14-Dec-18 17:15 39.295176 -106.537539 250 33708ft 435kts
14-Dec-18 17:16 39.254021 -106.681044 248 34369ft 446kts
14-Dec-18 17:17 39.186175 -106.814088 230 34366ft 446kts
14-Dec-18 17:17 39.121470 -106.918056 231 34376ft 446kts
14-Dec-18 17:19 39.031428 -107.063581 231 34402ft 447kts
14-Dec-18 17:20 38.954026 -107.188201 231 34398ft 446kts
14-Dec-18 17:20 38.893637 -107.285139 231 34394ft 446kts
14-Dec-18 17:22 38.803095 -107.430068 231 34393ft 446kts
14-Dec-18 17:22 38.738217 -107.533583 231 34393ft 446kts
14-Dec-18 17:24 38.664343 -107.651144 230 34393ft 446kts
14-Dec-18 17:24 38.600970 -107.751655 230 34393ft 446kts
14-Dec-18 17:25 38.523232 -107.874610 230 34393ft 446kts
14-Dec-18 17:27 38.443338 -108.000576 230 34393ft 446kts
14-Dec-18 17:27 38.378223 -108.102983 230 34390ft 446kts
14-Dec-18 17:28 38.299852 -108.225803 230 34390ft 446kts
14-Dec-18 17:29 38.221518 -108.348124 230 34393ft 446kts
14-Dec-18 17:30 38.143250 -108.469972 231 34393ft 446kts
14-Dec-18 17:31 38.064430 -108.592276 231 34393ft 446kts
14-Dec-18 17:32 37.987852 -108.710681 230 34393ft 446kts
14-Dec-18 17:33 37.928699 -108.801890 230 34393ft 446kts
14-Dec-18 17:34 37.850591 -108.921990 230 34396ft 446kts
14-Dec-18 17:35 37.771490 -109.043211 230 34399ft 446kts
14-Dec-18 17:36 37.692109 -109.164472 230 34395ft 446kts
14-Dec-18 17:37 37.612692 -109.285322 230 34393ft 446kts
14-Dec-18 17:38 37.533494 -109.405452 230 34393ft 446kts
14-Dec-18 17:39 37.453821 -109.525932 230 34393ft 446kts
14-Dec-18 17:40 37.374163 -109.645939 230 34393ft 446kts
14-Dec-18 17:41 37.295774 -109.763502 229 34393ft 446kts
14-Dec-18 17:42 37.215750 -109.883103 229 34393ft 446kts
14-Dec-18 17:43 37.135820 -110.002262 229 34388ft 446kts
14-Dec-18 17:44 37.055907 -110.120885 229 34379ft 446kts
14-Dec-18 17:45 36.975790 -110.239491 229 34374ft 446kts
14-Dec-18 17:46 36.895962 -110.357210 229 34374ft 446kts
14-Dec-18 17:47 36.815280 -110.475782 229 34374ft 446kts
14-Dec-18 17:48 36.734149 -110.594579 229 34375ft 446kts
14-Dec-18 17:49 36.654631 -110.710595 229 34375ft 446kts
14-Dec-18 17:50 36.573979 -110.827831 229 34375ft 446kts
14-Dec-18 17:51 36.492839 -110.945373 229 34373ft 446kts
14-Dec-18 17:52 36.412085 -111.061913 229 34369ft 434kts
14-Dec-18 17:53 36.331023 -111.178469 229 34365ft 446kts
14-Dec-18 17:54 36.250201 -111.294249 229 34366ft 446kts
14-Dec-18 17:55 36.169250 -111.409787 229 34366ft 446kts
14-Dec-18 17:56 36.087222 -111.526419 229 34366ft 446kts
14-Dec-18 17:57 36.005171 -111.642657 229 34366ft 446kts
14-Dec-18 17:58 35.925812 -111.754704 228 34362ft 447kts
14-Dec-18 17:59 35.844120 -111.870277 232 34356ft 446kts
14-Dec-18 18:00 35.781673 -112.002507 241 34351ft 447kts
14-Dec-18 18:01 35.721013 -112.136355 240 34347ft 446kts
14-Dec-18 18:02 35.658278 -112.269949 240 34348ft 446kts
14-Dec-18 18:03 35.595634 -112.402934 240 34347ft 446kts
14-Dec-18 18:04 35.533748 -112.535654 240 34347ft 446kts
14-Dec-18 18:05 35.473492 -112.664428 239 34345ft 446kts
14-Dec-18 18:06 35.410891 -112.797618 239 34342ft 447kts
14-Dec-18 18:07 35.350936 -112.924747 239 34314ft 446kts
14-Dec-18 18:08 35.288695 -113.056224 239 34284ft 446kts
14-Dec-18 18:09 35.225822 -113.188526 239 34283ft 447kts
14-Dec-18 18:10 35.162630 -113.320981 239 34283ft 446kts
14-Dec-18 18:11 35.099276 -113.453235 239 34283ft 447kts
14-Dec-18 18:12 35.035890 -113.585048 239 34283ft 446kts
14-Dec-18 18:13 34.973781 -113.713730 239 34283ft 447kts
14-Dec-18 18:14 34.910232 -113.844919 239 34283ft 447kts
14-Dec-18 18:15 34.847366 -113.972584 237 34279ft 446kts
14-Dec-18 18:16 34.781041 -114.100956 237 34262ft 446kts
14-Dec-18 18:17 34.714479 -114.229500 237 34248ft 446kts
14-Dec-18 18:18 34.648197 -114.357066 237 34248ft 444kts
14-Dec-18 18:19 34.570310 -114.473324 226 34246ft 445kts
14-Dec-18 18:20 34.488454 -114.585371 229 34246ft 445kts
14-Dec-18 18:21 34.409937 -114.693614 228 34247ft 445kts
14-Dec-18 18:22 34.327964 -114.806143 228 34247ft 445kts
14-Dec-18 18:23 34.246133 -114.917902 228 34246ft 446kts
14-Dec-18 18:24 34.163776 -115.029950 228 34193ft 445kts
14-Dec-18 18:25 34.081682 -115.141303 228 34181ft 445kts
14-Dec-18 18:26 33.999623 -115.252280 228 34219ft 446kts
14-Dec-18 18:27 33.918884 -115.361626 228 34219ft 445kts
14-Dec-18 18:28 33.841850 -115.465813 228 34219ft 445kts
14-Dec-18 18:29 33.761870 -115.573585 228 34219ft 445kts
14-Dec-18 18:30 33.694166 -115.664495 227 34219ft 445kts
14-Dec-18 18:31 33.613120 -115.772588 232 31754ft 452kts
14-Dec-18 18:32 33.539506 -115.902378 235 27340ft 452kts
14-Dec-18 18:33 33.471759 -116.019336 235 25541ft 411kts
14-Dec-18 18:34 33.408731 -116.127812 235 22868ft 401kts
14-Dec-18 18:35 33.346027 -116.231503 225 20483ft 380kts
14-Dec-18 18:36 33.266402 -116.291234 206 18364ft 364kts
14-Dec-18 18:37 33.175604 -116.344740 206 15995ft 351kts
14-Dec-18 18:38 33.089801 -116.394938 206 13944ft 349kts
14-Dec-18 18:39 33.003910 -116.446047 213 12300ft 331kts
14-Dec-18 18:40 32.935479 -116.514621 220 10755ft 310kts
14-Dec-18 18:41 32.874800 -116.575986 220 9997ft 279kts
14-Dec-18 18:42 32.816278 -116.634923 220 8842ft 274kts
14-Dec-18 18:43 32.763185 -116.696993 239 7686ft 270kts
14-Dec-18 18:44 32.727696 -116.775134 240 6603ft 266kts
14-Dec-18 18:45 32.695742 -116.853669 252 5388ft 267kts
14-Dec-18 18:46 32.690502 -116.937412 277 3975ft 248kts
14-Dec-18 18:47 32.695737 -117.015483 274 2991ft 224kts
14-Dec-18 18:48 32.706138 -117.082293 287 1995ft 185kts
14-Dec-18 18:49 32.720522 -117.137052 285 850ft 151kts
14-Dec-18 18:50 32.731095 -117.179744 287 61ft 131kts
14-Dec-18 18:51 32.735232 -117.197893 247 17ft 11kts
14-Dec-18 18:52 32.734621 -117.198459 143 17ft 5kts
14-Dec-18 18:53 32.733407 -117.197146 201 17ft 6kts
14-Dec-18 18:54 32.732745 -117.196973 136 19ft 0kts
14-Dec-18 18:55 32.732745 -117.196973 136 19ft 0kts

Navigation Log

Ident Type
Flight plan parsing failed, navigation log unavailable